Ukiivik

KL  EN  DA
ASIAQ
Weather Now GREENLAND SURVEY
Updated [WGT/WGST] Temperature [°C] Wind [m/s] Air pressure [hPa] Relative humidity [%] Precipitation [mm]
Present Wind chill Speed Max
21.01 20:00-8,8-16,05,1 ⇙7,799660n/a
21.01 19:00-8,8-16,45,7 ⇙6,799762n/a
21.01 18:00-9,3-17,15,7 ⇐7,299765n/a
21.01 17:00-9,4-16,44,6 ⇐6,799764n/a
21.01 16:00-9,2-16,55,1 ⇐6,299866n/a
21.01 15:00-9,0-17,06,2 ⇐7,299867n/a
21.01 14:00-9,0-16,75,7 ⇐7,299868n/a
21.01 13:00-9,0-15,44,1 ⇐5,799871n/a
21.01 12:00-8,9-15,74,6 ⇐6,299982n/a
21.01 11:00-9,3-17,46,2 ⇖7,799987n/a
21.01 10:00-8,6-15,44,6 ⇖6,299992n/a
21.01 09:00-8,6-15,44,6 ⇖5,799991n/a
21.01 08:00-7,8-10,61,5 ⇘3,199970n/a
21.01 07:00-8,0-11,92,1 ⇖3,199989n/a
21.01 06:00-8,3-11,21,5 ⇓2,699988n/a
21.01 05:00-7,8-13,03,1 ⇒6,299976n/a
21.01 04:00-7,4-13,94,6 ⇒6,299865n/a
21.01 03:00-7,3-14,15,1 ⇘7,299872n/a
21.01 02:00-8,1-16,26,7 ⇘9,399789n/a
21.01 01:00-7,2-14,76,2 ⇒8,899763n/a
21.01 00:00-7,2-15,06,7 ⇘8,899769n/a
20.01 23:00-7,2-15,57,7 ⇘9,899771n/a
20.01 22:00-7,7-15,36,2 ⇒11,399679n/a
20.01 21:00-6,9-15,99,3 ⇘12,499572n/a
20.01 20:00-6,5-14,67,7 ⇒10,399564n/a
Position: (62.57888889,-50.40583333)

[Back]